sensor_id;sensor_type;location;lat;lon;timestamp;P1;durP1;ratioP1;P2;durP2;ratioP2
77821;SDS011;67012;53.712;10.728;2023-08-08T05:54:08;3.40;;;1.42;;
77821;SDS011;67012;53.712;10.728;2023-08-08T05:56:36;2.57;;;0.97;;
77821;SDS011;67012;53.712;10.728;2023-08-08T05:59:04;3.17;;;1.30;;
77821;SDS011;67012;53.712;10.728;2023-08-08T06:01:29;3.80;;;1.30;;
77821;SDS011;67012;53.712;10.728;2023-08-08T06:03:55;1.85;;;1.58;;
77821;SDS011;67012;53.712;10.728;2023-08-08T06:06:20;1.10;;;1.00;;
77821;SDS011;67012;53.712;10.728;2023-08-08T06:08:45;2.43;;;1.10;;
77821;SDS011;67012;53.712;10.728;2023-08-08T06:11:10;3.07;;;1.10;;
77821;SDS011;67012;53.712;10.728;2023-08-08T06:13:36;2.23;;;1.07;;
77821;SDS011;67012;53.712;10.728;2023-08-08T06:16:01;3.38;;;1.20;;
77821;SDS011;67012;53.712;10.728;2023-08-08T06:18:31;1.40;;;1.30;;
77821;SDS011;67012;53.712;10.728;2023-08-08T06:20:56;2.10;;;1.20;;
77821;SDS011;67012;53.712;10.728;2023-08-08T06:23:21;2.43;;;1.00;;
77821;SDS011;67012;53.712;10.728;2023-08-08T06:25:46;1.67;;;0.93;;
77821;SDS011;67012;53.712;10.728;2023-08-08T06:28:12;2.33;;;1.00;;
77821;SDS011;67012;53.712;10.728;2023-08-08T06:30:37;2.93;;;1.07;;
77821;SDS011;67012;53.712;10.728;2023-08-08T06:33:02;3.47;;;0.90;;
77821;SDS011;67012;53.712;10.728;2023-08-08T06:35:27;4.80;;;1.23;;
77821;SDS011;67012;53.712;10.728;2023-08-08T06:37:52;1.27;;;0.93;;
77821;SDS011;67012;53.712;10.728;2023-08-08T06:40:18;4.00;;;0.83;;
77821;SDS011;67012;53.712;10.728;2023-08-08T06:42:43;3.22;;;0.80;;
77821;SDS011;67012;53.712;10.728;2023-08-08T06:45:08;5.37;;;1.03;;
77821;SDS011;67012;53.712;10.728;2023-08-08T06:47:34;3.95;;;1.10;;
77821;SDS011;67012;53.712;10.728;2023-08-08T06:49:59;3.07;;;0.90;;
77821;SDS011;67012;53.712;10.728;2023-08-08T06:52:25;4.37;;;1.17;;
77821;SDS011;67012;53.712;10.728;2023-08-08T06:54:50;3.27;;;1.10;;
77821;SDS011;67012;53.712;10.728;2023-08-08T06:57:15;2.90;;;1.13;;
77821;SDS011;67012;53.712;10.728;2023-08-08T06:59:40;1.47;;;0.80;;
77821;SDS011;67012;53.712;10.728;2023-08-08T07:02:06;2.90;;;0.80;;
77821;SDS011;67012;53.712;10.728;2023-08-08T07:04:31;1.63;;;1.00;;
77821;SDS011;67012;53.712;10.728;2023-08-08T07:06:57;1.85;;;0.80;;
77821;SDS011;67012;53.712;10.728;2023-08-08T07:09:22;2.03;;;1.00;;
77821;SDS011;67012;53.712;10.728;2023-08-08T07:11:47;1.33;;;0.70;;
77821;SDS011;67012;53.712;10.728;2023-08-08T07:14:12;3.33;;;0.77;;
77821;SDS011;67012;53.712;10.728;2023-08-08T07:16:38;1.73;;;0.63;;
77821;SDS011;67012;53.712;10.728;2023-08-08T07:19:03;4.17;;;1.00;;
77821;SDS011;67012;53.712;10.728;2023-08-08T07:21:28;1.97;;;1.00;;
77821;SDS011;67012;53.712;10.728;2023-08-08T07:23:54;1.85;;;0.77;;
77821;SDS011;67012;53.712;10.728;2023-08-08T07:26:19;4.97;;;1.10;;
77821;SDS011;67012;53.712;10.728;2023-08-08T07:28:44;5.67;;;0.90;;
77821;SDS011;67012;53.712;10.728;2023-08-08T07:31:10;3.63;;;0.87;;
77821;SDS011;67012;53.712;10.728;2023-08-08T07:33:35;4.33;;;1.03;;
77821;SDS011;67012;53.712;10.728;2023-08-08T07:36:00;6.43;;;1.00;;
77821;SDS011;67012;53.712;10.728;2023-08-08T07:38:25;4.73;;;0.97;;
77821;SDS011;67012;53.712;10.728;2023-08-08T07:40:50;4.30;;;1.00;;
77821;SDS011;67012;53.712;10.728;2023-08-08T07:43:15;4.17;;;1.00;;
77821;SDS011;67012;53.712;10.728;2023-08-08T07:45:41;6.20;;;1.07;;
77821;SDS011;67012;53.712;10.728;2023-08-08T07:48:06;2.80;;;0.85;;
77821;SDS011;67012;53.712;10.728;2023-08-08T07:50:31;3.53;;;1.20;;
77821;SDS011;67012;53.712;10.728;2023-08-08T07:52:57;2.07;;;0.97;;
77821;SDS011;67012;53.712;10.728;2023-08-08T07:55:22;2.15;;;0.90;;
77821;SDS011;67012;53.712;10.728;2023-08-08T07:57:47;4.13;;;1.07;;
77821;SDS011;67012;53.712;10.728;2023-08-08T08:00:12;1.90;;;0.83;;
77821;SDS011;67012;53.712;10.728;2023-08-08T08:02:38;5.28;;;0.95;;
77821;SDS011;67012;53.712;10.728;2023-08-08T08:05:04;2.33;;;0.82;;
77821;SDS011;67012;53.712;10.728;2023-08-08T08:07:33;2.75;;;0.75;;
77821;SDS011;67012;53.712;10.728;2023-08-08T08:09:58;5.10;;;0.90;;
77821;SDS011;67012;53.712;10.728;2023-08-08T08:12:24;2.38;;;0.85;;
77821;SDS011;67012;53.712;10.728;2023-08-08T08:14:49;4.00;;;1.00;;
77821;SDS011;67012;53.712;10.728;2023-08-08T08:17:14;2.80;;;1.10;;
77821;SDS011;67012;53.712;10.728;2023-08-08T08:19:39;0.93;;;0.80;;
77821;SDS011;67012;53.712;10.728;2023-08-08T08:22:04;1.67;;;0.67;;
77821;SDS011;67012;53.712;10.728;2023-08-08T08:24:30;1.87;;;0.87;;
77821;SDS011;67012;53.712;10.728;2023-08-08T08:26:55;2.77;;;1.23;;
77821;SDS011;67012;53.712;10.728;2023-08-08T08:29:20;3.87;;;1.00;;
77821;SDS011;67012;53.712;10.728;2023-08-08T08:31:45;1.70;;;1.00;;
77821;SDS011;67012;53.712;10.728;2023-08-08T08:34:10;1.63;;;0.80;;
77821;SDS011;67012;53.712;10.728;2023-08-08T08:36:35;2.87;;;0.90;;
77821;SDS011;67012;53.712;10.728;2023-08-08T08:39:01;3.47;;;1.10;;
77821;SDS011;67012;53.712;10.728;2023-08-08T08:41:27;2.53;;;0.97;;
77821;SDS011;67012;53.712;10.728;2023-08-08T08:43:53;5.60;;;1.17;;
77821;SDS011;67012;53.712;10.728;2023-08-08T08:46:20;2.70;;;0.95;;
77821;SDS011;67012;53.712;10.728;2023-08-08T08:48:45;3.40;;;0.73;;
77821;SDS011;67012;53.712;10.728;2023-08-08T08:51:11;2.80;;;1.17;;
77821;SDS011;67012;53.712;10.728;2023-08-08T08:53:36;1.90;;;0.93;;
77821;SDS011;67012;53.712;10.728;2023-08-08T08:56:04;4.82;;;1.40;;
77821;SDS011;67012;53.712;10.728;2023-08-08T08:58:29;2.45;;;1.10;;
77821;SDS011;67012;53.712;10.728;2023-08-08T09:00:55;1.30;;;0.95;;
77821;SDS011;67012;53.712;10.728;2023-08-08T09:03:21;3.20;;;0.95;;
77821;SDS011;67012;53.712;10.728;2023-08-08T09:05:47;2.60;;;1.20;;
77821;SDS011;67012;53.712;10.728;2023-08-08T09:08:13;4.78;;;1.30;;
77821;SDS011;67012;53.712;10.728;2023-08-08T09:10:38;6.15;;;1.33;;
77821;SDS011;67012;53.712;10.728;2023-08-08T09:13:04;6.47;;;1.52;;
77821;SDS011;67012;53.712;10.728;2023-08-08T09:15:30;2.22;;;0.90;;
77821;SDS011;67012;53.712;10.728;2023-08-08T09:17:55;6.05;;;1.20;;
77821;SDS011;67012;53.712;10.728;2023-08-08T09:20:20;2.17;;;1.10;;
77821;SDS011;67012;53.712;10.728;2023-08-08T09:22:45;3.20;;;1.13;;
77821;SDS011;67012;53.712;10.728;2023-08-08T09:25:10;3.93;;;1.30;;
77821;SDS011;67012;53.712;10.728;2023-08-08T09:27:36;4.18;;;1.13;;
77821;SDS011;67012;53.712;10.728;2023-08-08T09:30:01;2.43;;;1.00;;
77821;SDS011;67012;53.712;10.728;2023-08-08T09:32:31;2.20;;;1.08;;
77821;SDS011;67012;53.712;10.728;2023-08-08T09:34:56;3.08;;;0.90;;
77821;SDS011;67012;53.712;10.728;2023-08-08T09:37:22;1.27;;;0.80;;
77821;SDS011;67012;53.712;10.728;2023-08-08T09:39:55;2.42;;;0.90;;
77821;SDS011;67012;53.712;10.728;2023-08-08T09:42:20;3.97;;;1.13;;
77821;SDS011;67012;53.712;10.728;2023-08-08T09:44:46;1.33;;;0.90;;
77821;SDS011;67012;53.712;10.728;2023-08-08T09:47:12;2.17;;;0.90;;
77821;SDS011;67012;53.712;10.728;2023-08-08T09:49:37;3.05;;;1.10;;
77821;SDS011;67012;53.712;10.728;2023-08-08T09:52:02;2.87;;;0.90;;
77821;SDS011;67012;53.712;10.728;2023-08-08T09:54:29;2.13;;;0.68;;
77821;SDS011;67012;53.712;10.728;2023-08-08T09:56:54;4.38;;;0.80;;
77821;SDS011;67012;53.712;10.728;2023-08-08T09:59:20;3.08;;;0.90;;
77821;SDS011;67012;53.712;10.728;2023-08-08T10:01:45;0.85;;;0.57;;
77821;SDS011;67012;53.712;10.728;2023-08-08T10:04:12;1.40;;;0.70;;
77821;SDS011;67012;53.712;10.728;2023-08-08T10:06:37;2.80;;;1.00;;
77821;SDS011;67012;53.712;10.728;2023-08-08T10:09:02;1.07;;;0.57;;
77821;SDS011;67012;53.712;10.728;2023-08-08T10:11:28;1.50;;;0.60;;
77821;SDS011;67012;53.712;10.728;2023-08-08T10:13:55;2.63;;;0.80;;
77821;SDS011;67012;53.712;10.728;2023-08-08T10:16:21;3.78;;;0.73;;
77821;SDS011;67012;53.712;10.728;2023-08-08T10:18:54;0.70;;;0.70;;
77821;SDS011;67012;53.712;10.728;2023-08-08T10:21:22;0.52;;;0.52;;
77821;SDS011;67012;53.712;10.728;2023-08-08T10:23:48;1.23;;;0.52;;
77821;SDS011;67012;53.712;10.728;2023-08-08T10:26:18;3.53;;;0.75;;
77821;SDS011;67012;53.712;10.728;2023-08-08T10:28:55;2.47;;;0.60;;
77821;SDS011;67012;53.712;10.728;2023-08-08T10:31:20;3.13;;;0.68;;
77821;SDS011;67012;53.712;10.728;2023-08-08T10:33:46;4.68;;;0.55;;
77821;SDS011;67012;53.712;10.728;2023-08-08T10:36:11;1.20;;;0.80;;
77821;SDS011;67012;53.712;10.728;2023-08-08T10:41:08;1.08;;;0.60;;
77821;SDS011;67012;53.712;10.728;2023-08-08T10:43:33;1.15;;;0.70;;
77821;SDS011;67012;53.712;10.728;2023-08-08T10:46:02;1.57;;;0.60;;
77821;SDS011;67012;53.712;10.728;2023-08-08T10:48:28;1.83;;;0.70;;
77821;SDS011;67012;53.712;10.728;2023-08-08T10:50:59;0.47;;;0.40;;
77821;SDS011;67012;53.712;10.728;2023-08-08T10:53:25;3.00;;;0.75;;
77821;SDS011;67012;53.712;10.728;2023-08-08T10:55:58;0.70;;;0.50;;
77821;SDS011;67012;53.712;10.728;2023-08-08T10:58:33;1.45;;;0.57;;
77821;SDS011;67012;53.712;10.728;2023-08-08T11:00:59;1.80;;;0.60;;
77821;SDS011;67012;53.712;10.728;2023-08-08T11:03:25;2.83;;;0.63;;
77821;SDS011;67012;53.712;10.728;2023-08-08T11:05:51;1.48;;;0.50;;
77821;SDS011;67012;53.712;10.728;2023-08-08T11:08:17;3.17;;;0.80;;
77821;SDS011;67012;53.712;10.728;2023-08-08T11:10:43;1.75;;;0.52;;
77821;SDS011;67012;53.712;10.728;2023-08-08T11:13:08;0.95;;;0.43;;
77821;SDS011;67012;53.712;10.728;2023-08-08T11:15:34;2.03;;;0.57;;
77821;SDS011;67012;53.712;10.728;2023-08-08T11:17:59;1.73;;;0.85;;
77821;SDS011;67012;53.712;10.728;2023-08-08T11:20:28;0.88;;;0.70;;
77821;SDS011;67012;53.712;10.728;2023-08-08T11:22:54;2.00;;;0.70;;
77821;SDS011;67012;53.712;10.728;2023-08-08T11:25:20;0.93;;;0.68;;
77821;SDS011;67012;53.712;10.728;2023-08-08T11:27:49;1.30;;;0.70;;
77821;SDS011;67012;53.712;10.728;2023-08-08T11:30:15;2.08;;;0.68;;
77821;SDS011;67012;53.712;10.728;2023-08-08T11:32:40;2.67;;;0.70;;
77821;SDS011;67012;53.712;10.728;2023-08-08T11:35:05;5.03;;;0.77;;
77821;SDS011;67012;53.712;10.728;2023-08-08T11:37:31;3.45;;;0.88;;
77821;SDS011;67012;53.712;10.728;2023-08-08T11:39:56;1.40;;;0.60;;
77821;SDS011;67012;53.712;10.728;2023-08-08T11:42:21;3.97;;;0.50;;
77821;SDS011;67012;53.712;10.728;2023-08-08T11:44:46;2.10;;;0.60;;
77821;SDS011;67012;53.712;10.728;2023-08-08T11:47:12;0.40;;;0.38;;
77821;SDS011;67012;53.712;10.728;2023-08-08T11:49:39;1.10;;;0.47;;
77821;SDS011;67012;53.712;10.728;2023-08-08T11:52:05;1.40;;;0.57;;
77821;SDS011;67012;53.712;10.728;2023-08-08T11:54:31;0.68;;;0.68;;
77821;SDS011;67012;53.712;10.728;2023-08-08T11:56:56;1.80;;;0.50;;
77821;SDS011;67012;53.712;10.728;2023-08-08T11:59:21;1.03;;;0.40;;
77821;SDS011;67012;53.712;10.728;2023-08-08T12:01:48;0.90;;;0.60;;
77821;SDS011;67012;53.712;10.728;2023-08-08T12:04:14;1.70;;;0.60;;
77821;SDS011;67012;53.712;10.728;2023-08-08T12:06:39;1.67;;;0.50;;
77821;SDS011;67012;53.712;10.728;2023-08-08T12:09:05;2.83;;;1.00;;
77821;SDS011;67012;53.712;10.728;2023-08-08T12:11:33;2.65;;;0.40;;
77821;SDS011;67012;53.712;10.728;2023-08-08T12:16:27;3.33;;;0.70;;
77821;SDS011;67012;53.712;10.728;2023-08-08T12:18:52;4.03;;;1.00;;
77821;SDS011;67012;53.712;10.728;2023-08-08T12:21:18;3.70;;;0.95;;
77821;SDS011;67012;53.712;10.728;2023-08-08T12:23:43;1.33;;;0.63;;
77821;SDS011;67012;53.712;10.728;2023-08-08T12:26:08;3.07;;;0.93;;
77821;SDS011;67012;53.712;10.728;2023-08-08T12:28:34;3.83;;;0.83;;
77821;SDS011;67012;53.712;10.728;2023-08-08T12:30:59;2.50;;;0.70;;
77821;SDS011;67012;53.712;10.728;2023-08-08T12:33:25;3.30;;;0.52;;
77821;SDS011;67012;53.712;10.728;2023-08-08T12:35:50;2.53;;;0.60;;
77821;SDS011;67012;53.712;10.728;2023-08-08T12:38:15;3.47;;;0.80;;
77821;SDS011;67012;53.712;10.728;2023-08-08T12:40:40;2.67;;;0.80;;
77821;SDS011;67012;53.712;10.728;2023-08-08T12:43:06;3.40;;;0.70;;
77821;SDS011;67012;53.712;10.728;2023-08-08T12:45:31;5.20;;;1.23;;
77821;SDS011;67012;53.712;10.728;2023-08-08T12:47:56;3.20;;;1.00;;
77821;SDS011;67012;53.712;10.728;2023-08-08T12:50:21;1.33;;;0.63;;
77821;SDS011;67012;53.712;10.728;2023-08-08T12:52:47;2.90;;;0.60;;
77821;SDS011;67012;53.712;10.728;2023-08-08T12:55:12;2.03;;;1.00;;
77821;SDS011;67012;53.712;10.728;2023-08-08T12:57:37;1.77;;;0.73;;
77821;SDS011;67012;53.712;10.728;2023-08-08T13:00:03;4.00;;;0.70;;
77821;SDS011;67012;53.712;10.728;2023-08-08T13:02:29;2.17;;;0.70;;
77821;SDS011;67012;53.712;10.728;2023-08-08T13:04:54;1.73;;;0.57;;
77821;SDS011;67012;53.712;10.728;2023-08-08T13:07:19;1.33;;;0.50;;
77821;SDS011;67012;53.712;10.728;2023-08-08T13:09:44;2.33;;;0.73;;
77821;SDS011;67012;53.712;10.728;2023-08-08T13:12:09;2.37;;;1.03;;
77821;SDS011;67012;53.712;10.728;2023-08-08T13:14:35;1.15;;;0.45;;
77821;SDS011;67012;53.712;10.728;2023-08-08T13:17:01;2.90;;;0.63;;
77821;SDS011;67012;53.712;10.728;2023-08-08T13:19:26;4.75;;;0.80;;
77821;SDS011;67012;53.712;10.728;2023-08-08T13:21:52;1.83;;;0.80;;
77821;SDS011;67012;53.712;10.728;2023-08-08T13:24:17;4.75;;;0.98;;
77821;SDS011;67012;53.712;10.728;2023-08-08T13:26:43;1.50;;;0.70;;
77821;SDS011;67012;53.712;10.728;2023-08-08T13:29:08;5.83;;;1.00;;
77821;SDS011;67012;53.712;10.728;2023-08-08T13:31:33;2.00;;;1.05;;
77821;SDS011;67012;53.712;10.728;2023-08-08T13:33:59;4.33;;;1.00;;
77821;SDS011;67012;53.712;10.728;2023-08-08T13:36:24;2.47;;;0.80;;
77821;SDS011;67012;53.712;10.728;2023-08-08T13:38:49;5.20;;;0.80;;
77821;SDS011;67012;53.712;10.728;2023-08-08T13:41:14;3.60;;;0.85;;
77821;SDS011;67012;53.712;10.728;2023-08-08T13:43:40;4.33;;;0.83;;
77821;SDS011;67012;53.712;10.728;2023-08-08T13:46:05;3.00;;;0.70;;
77821;SDS011;67012;53.712;10.728;2023-08-08T13:48:33;1.33;;;0.68;;
77821;SDS011;67012;53.712;10.728;2023-08-08T13:50:58;6.38;;;1.58;;
77821;SDS011;67012;53.712;10.728;2023-08-08T13:53:23;3.17;;;1.10;;
77821;SDS011;67012;53.712;10.728;2023-08-08T13:55:48;3.80;;;0.77;;
77821;SDS011;67012;53.712;10.728;2023-08-08T13:58:14;3.57;;;1.40;;
77821;SDS011;67012;53.712;10.728;2023-08-08T14:00:39;4.43;;;1.07;;
77821;SDS011;67012;53.712;10.728;2023-08-08T14:03:04;2.30;;;0.70;;
77821;SDS011;67012;53.712;10.728;2023-08-08T14:05:29;6.07;;;0.95;;
77821;SDS011;67012;53.712;10.728;2023-08-08T14:07:56;8.43;;;0.77;;
77821;SDS011;67012;53.712;10.728;2023-08-08T14:10:21;3.87;;;1.07;;
77821;SDS011;67012;53.712;10.728;2023-08-08T14:12:46;2.60;;;0.90;;
77821;SDS011;67012;53.712;10.728;2023-08-08T14:15:12;4.30;;;0.70;;
77821;SDS011;67012;53.712;10.728;2023-08-08T14:17:37;2.80;;;0.87;;
77821;SDS011;67012;53.712;10.728;2023-08-08T14:20:02;7.03;;;1.20;;
77821;SDS011;67012;53.712;10.728;2023-08-08T14:22:27;2.42;;;1.00;;
77821;SDS011;67012;53.712;10.728;2023-08-08T14:24:52;3.53;;;0.70;;
77821;SDS011;67012;53.712;10.728;2023-08-08T14:27:18;1.67;;;0.70;;
77821;SDS011;67012;53.712;10.728;2023-08-08T14:29:43;1.60;;;0.73;;
77821;SDS011;67012;53.712;10.728;2023-08-08T14:32:08;3.20;;;0.65;;
77821;SDS011;67012;53.712;10.728;2023-08-08T14:34:34;6.03;;;1.07;;
77821;SDS011;67012;53.712;10.728;2023-08-08T14:36:59;2.90;;;1.10;;
77821;SDS011;67012;53.712;10.728;2023-08-08T14:39:25;3.05;;;0.80;;
77821;SDS011;67012;53.712;10.728;2023-08-08T14:41:50;4.68;;;1.35;;
77821;SDS011;67012;53.712;10.728;2023-08-08T14:44:16;2.53;;;0.63;;
77821;SDS011;67012;53.712;10.728;2023-08-08T14:46:41;3.23;;;0.90;;
77821;SDS011;67012;53.712;10.728;2023-08-08T14:49:06;4.50;;;1.00;;
77821;SDS011;67012;53.712;10.728;2023-08-08T14:51:32;6.97;;;1.20;;
77821;SDS011;67012;53.712;10.728;2023-08-08T14:53:57;5.00;;;1.17;;
77821;SDS011;67012;53.712;10.728;2023-08-08T14:56:22;2.87;;;1.00;;
77821;SDS011;67012;53.712;10.728;2023-08-08T14:58:47;1.70;;;0.80;;
77821;SDS011;67012;53.712;10.728;2023-08-08T15:01:12;3.57;;;0.87;;
77821;SDS011;67012;53.712;10.728;2023-08-08T15:03:38;2.53;;;0.63;;
77821;SDS011;67012;53.712;10.728;2023-08-08T15:08:31;5.57;;;1.05;;
77821;SDS011;67012;53.712;10.728;2023-08-08T15:10:56;3.23;;;0.90;;
77821;SDS011;67012;53.712;10.728;2023-08-08T15:13:21;1.73;;;0.80;;
77821;SDS011;67012;53.712;10.728;2023-08-08T15:15:46;3.63;;;0.77;;
77821;SDS011;67012;53.712;10.728;2023-08-08T15:18:12;4.00;;;0.73;;
77821;SDS011;67012;53.712;10.728;2023-08-08T15:20:37;3.57;;;1.00;;
77821;SDS011;67012;53.712;10.728;2023-08-08T15:23:02;1.83;;;0.70;;
77821;SDS011;67012;53.712;10.728;2023-08-08T15:25:28;6.13;;;0.80;;
77821;SDS011;67012;53.712;10.728;2023-08-08T15:27:53;3.93;;;1.00;;
77821;SDS011;67012;53.712;10.728;2023-08-08T15:30:18;3.30;;;0.87;;
77821;SDS011;67012;53.712;10.728;2023-08-08T15:32:43;5.70;;;1.10;;
77821;SDS011;67012;53.712;10.728;2023-08-08T15:35:08;5.33;;;1.00;;
77821;SDS011;67012;53.712;10.728;2023-08-08T15:37:33;3.23;;;0.77;;
77821;SDS011;67012;53.712;10.728;2023-08-08T15:39:59;3.70;;;0.80;;
77821;SDS011;67012;53.712;10.728;2023-08-08T15:42:24;1.05;;;0.60;;
77821;SDS011;67012;53.712;10.728;2023-08-08T15:44:50;5.23;;;1.20;;
77821;SDS011;67012;53.712;10.728;2023-08-08T15:47:15;3.25;;;0.73;;
77821;SDS011;67012;53.712;10.728;2023-08-08T15:49:40;4.57;;;1.33;;
77821;SDS011;67012;53.712;10.728;2023-08-08T15:52:05;4.27;;;0.90;;
77821;SDS011;67012;53.712;10.728;2023-08-08T15:54:30;2.30;;;0.93;;
77821;SDS011;67012;53.712;10.728;2023-08-08T15:56:56;5.47;;;1.07;;
77821;SDS011;67012;53.712;10.728;2023-08-08T15:59:21;1.83;;;0.55;;
77821;SDS011;67012;53.712;10.728;2023-08-08T16:01:47;2.92;;;1.42;;
77821;SDS011;67012;53.712;10.728;2023-08-08T16:04:12;3.87;;;0.90;;
77821;SDS011;67012;53.712;10.728;2023-08-08T16:06:40;3.38;;;0.80;;
77821;SDS011;67012;53.712;10.728;2023-08-08T16:09:05;0.55;;;0.50;;
77821;SDS011;67012;53.712;10.728;2023-08-08T16:11:30;3.27;;;0.70;;
77821;SDS011;67012;53.712;10.728;2023-08-08T16:13:55;0.80;;;0.40;;
77821;SDS011;67012;53.712;10.728;2023-08-08T16:16:20;0.53;;;0.53;;
77821;SDS011;67012;53.712;10.728;2023-08-08T16:18:45;2.97;;;0.73;;
77821;SDS011;67012;53.712;10.728;2023-08-08T16:21:11;2.43;;;0.60;;
77821;SDS011;67012;53.712;10.728;2023-08-08T16:23:36;4.13;;;0.70;;
77821;SDS011;67012;53.712;10.728;2023-08-08T16:26:01;1.23;;;0.70;;
77821;SDS011;67012;53.712;10.728;2023-08-08T16:28:27;3.58;;;0.75;;
77821;SDS011;67012;53.712;10.728;2023-08-08T16:30:53;3.90;;;0.60;;
77821;SDS011;67012;53.712;10.728;2023-08-08T16:33:18;3.50;;;0.80;;
77821;SDS011;67012;53.712;10.728;2023-08-08T16:35:44;5.70;;;0.57;;
77821;SDS011;67012;53.712;10.728;2023-08-08T16:38:09;3.20;;;0.50;;
77821;SDS011;67012;53.712;10.728;2023-08-08T16:40:36;0.82;;;0.77;;
77821;SDS011;67012;53.712;10.728;2023-08-08T16:43:01;2.13;;;0.70;;
77821;SDS011;67012;53.712;10.728;2023-08-08T16:45:26;2.37;;;0.77;;
77821;SDS011;67012;53.712;10.728;2023-08-08T16:47:52;4.32;;;0.60;;
77821;SDS011;67012;53.712;10.728;2023-08-08T16:50:17;1.37;;;0.60;;
77821;SDS011;67012;53.712;10.728;2023-08-08T16:52:42;4.33;;;0.83;;
77821;SDS011;67012;53.712;10.728;2023-08-08T16:55:08;4.00;;;0.80;;
77821;SDS011;67012;53.712;10.728;2023-08-08T16:57:35;4.80;;;0.82;;
77821;SDS011;67012;53.712;10.728;2023-08-08T17:00:01;2.92;;;0.85;;
77821;SDS011;67012;53.712;10.728;2023-08-08T17:02:26;3.03;;;1.33;;
77821;SDS011;67012;53.712;10.728;2023-08-08T17:04:52;5.20;;;1.13;;
77821;SDS011;67012;53.712;10.728;2023-08-08T17:07:17;3.40;;;0.83;;
77821;SDS011;67012;53.712;10.728;2023-08-08T17:09:42;3.80;;;1.10;;
77821;SDS011;67012;53.712;10.728;2023-08-08T17:12:07;4.53;;;1.13;;
77821;SDS011;67012;53.712;10.728;2023-08-08T17:14:32;2.20;;;0.73;;
77821;SDS011;67012;53.712;10.728;2023-08-08T17:16:58;2.97;;;0.83;;
77821;SDS011;67012;53.712;10.728;2023-08-08T17:19:23;3.58;;;1.00;;
77821;SDS011;67012;53.712;10.728;2023-08-08T17:21:48;2.47;;;0.80;;
77821;SDS011;67012;53.712;10.728;2023-08-08T17:24:13;2.47;;;0.80;;
77821;SDS011;67012;53.712;10.728;2023-08-08T17:26:41;2.55;;;0.70;;
77821;SDS011;67012;53.712;10.728;2023-08-08T17:29:08;4.35;;;1.00;;
77821;SDS011;67012;53.712;10.728;2023-08-08T17:31:34;4.90;;;0.73;;
77821;SDS011;67012;53.712;10.728;2023-08-08T17:34:00;3.47;;;0.93;;
77821;SDS011;67012;53.712;10.728;2023-08-08T17:36:26;3.15;;;0.73;;
77821;SDS011;67012;53.712;10.728;2023-08-08T17:38:51;2.00;;;0.83;;
77821;SDS011;67012;53.712;10.728;2023-08-08T17:41:17;4.65;;;0.90;;
77821;SDS011;67012;53.712;10.728;2023-08-08T17:43:42;4.10;;;1.13;;
77821;SDS011;67012;53.712;10.728;2023-08-08T17:46:07;8.20;;;1.97;;
77821;SDS011;67012;53.712;10.728;2023-08-08T17:48:32;3.93;;;2.03;;
77821;SDS011;67012;53.712;10.728;2023-08-08T17:50:58;6.00;;;3.47;;
77821;SDS011;67012;53.712;10.728;2023-08-08T17:53:23;9.17;;;4.37;;
77821;SDS011;67012;53.712;10.728;2023-08-08T17:55:48;4.13;;;1.95;;
77821;SDS011;67012;53.712;10.728;2023-08-08T17:58:13;8.73;;;2.10;;
